sensor_id;sensor_type;location;lat;lon;timestamp;temperature;humidity
20839;DHT22;10580;51.092;6.828;2022-08-11T00:00:08;20.10;1.00
20839;DHT22;10580;51.092;6.828;2022-08-11T00:02:40;20.00;1.00
20839;DHT22;10580;51.092;6.828;2022-08-11T00:05:12;19.90;99.90
20839;DHT22;10580;51.092;6.828;2022-08-11T00:11:57;19.80;1.00
20839;DHT22;10580;51.092;6.828;2022-08-11T00:14:37;19.70;1.00
20839;DHT22;10580;51.092;6.828;2022-08-11T00:20:19;19.60;99.90
20839;DHT22;10580;51.092;6.828;2022-08-11T00:23:26;19.60;1.00
20839;DHT22;10580;51.092;6.828;2022-08-11T00:26:09;19.50;99.90
20839;DHT22;10580;51.092;6.828;2022-08-11T00:28:38;19.40;99.90
20839;DHT22;10580;51.092;6.828;2022-08-11T00:31:19;19.40;99.90
20839;DHT22;10580;51.092;6.828;2022-08-11T00:37:21;19.30;99.90
20839;DHT22;10580;51.092;6.828;2022-08-11T00:39:59;19.20;99.90
20839;DHT22;10580;51.092;6.828;2022-08-11T00:49:22;19.10;99.90
20839;DHT22;10580;51.092;6.828;2022-08-11T01:04:46;18.80;1.00
20839;DHT22;10580;51.092;6.828;2022-08-11T01:13:42;18.60;1.00
20839;DHT22;10580;51.092;6.828;2022-08-11T01:17:03;18.60;1.00
20839;DHT22;10580;51.092;6.828;2022-08-11T01:33:48;18.30;1.00
20839;DHT22;10580;51.092;6.828;2022-08-11T01:41:35;18.20;1.00
20839;DHT22;10580;51.092;6.828;2022-08-11T01:47:55;18.20;1.00
20839;DHT22;10580;51.092;6.828;2022-08-11T01:58:42;18.00;1.00
20839;DHT22;10580;51.092;6.828;2022-08-11T02:04:15;17.90;1.00
20839;DHT22;10580;51.092;6.828;2022-08-11T02:10:34;17.80;1.00
20839;DHT22;10580;51.092;6.828;2022-08-11T02:19:41;17.70;1.00
20839;DHT22;10580;51.092;6.828;2022-08-11T02:26:43;17.60;1.00
20839;DHT22;10580;51.092;6.828;2022-08-11T02:29:31;17.60;1.00
20839;DHT22;10580;51.092;6.828;2022-08-11T02:35:17;17.50;1.00
20839;DHT22;10580;51.092;6.828;2022-08-11T02:43:49;17.40;1.00
20839;DHT22;10580;51.092;6.828;2022-08-11T02:49:25;17.40;1.00
20839;DHT22;10580;51.092;6.828;2022-08-11T02:52:44;17.40;1.00
20839;DHT22;10580;51.092;6.828;2022-08-11T02:58:15;17.30;1.00
20839;DHT22;10580;51.092;6.828;2022-08-11T03:07:14;17.20;1.00
20839;DHT22;10580;51.092;6.828;2022-08-11T03:09:48;17.20;1.00
20839;DHT22;10580;51.092;6.828;2022-08-11T03:12:22;17.20;1.00
20839;DHT22;10580;51.092;6.828;2022-08-11T03:15:18;17.10;1.00
20839;DHT22;10580;51.092;6.828;2022-08-11T03:21:20;17.10;1.00
20839;DHT22;10580;51.092;6.828;2022-08-11T03:29:26;17.10;1.00
20839;DHT22;10580;51.092;6.828;2022-08-11T03:34:45;17.00;1.00
20839;DHT22;10580;51.092;6.828;2022-08-11T03:37:27;17.00;1.00
20839;DHT22;10580;51.092;6.828;2022-08-11T03:46:06;17.10;1.00
20839;DHT22;10580;51.092;6.828;2022-08-11T03:48:53;17.10;1.00
20839;DHT22;10580;51.092;6.828;2022-08-11T03:51:26;17.00;1.00
20839;DHT22;10580;51.092;6.828;2022-08-11T04:00:28;16.90;1.00
20839;DHT22;10580;51.092;6.828;2022-08-11T04:17:20;16.90;1.00
20839;DHT22;10580;51.092;6.828;2022-08-11T04:20:09;16.90;1.00
20839;DHT22;10580;51.092;6.828;2022-08-11T04:28:59;16.90;1.00
20839;DHT22;10580;51.092;6.828;2022-08-11T04:32:25;16.80;1.00
20839;DHT22;10580;51.092;6.828;2022-08-11T05:13:24;19.60;1.00
20839;DHT22;10580;51.092;6.828;2022-08-11T05:16:14;21.70;1.00
20839;DHT22;10580;51.092;6.828;2022-08-11T05:22:21;25.50;1.00
20839;DHT22;10580;51.092;6.828;2022-08-11T05:34:44;30.50;99.90
20839;DHT22;10580;51.092;6.828;2022-08-11T05:40:11;32.00;1.00
20839;DHT22;10580;51.092;6.828;2022-08-11T05:43:02;32.40;1.00
20839;DHT22;10580;51.092;6.828;2022-08-11T05:49:21;33.20;1.00
20839;DHT22;10580;51.092;6.828;2022-08-11T05:52:16;33.40;1.00
20839;DHT22;10580;51.092;6.828;2022-08-11T05:55:08;33.50;1.00
20839;DHT22;10580;51.092;6.828;2022-08-11T05:57:58;34.00;1.00
20839;DHT22;10580;51.092;6.828;2022-08-11T06:00:26;34.30;1.00
20839;DHT22;10580;51.092;6.828;2022-08-11T06:03:30;34.40;1.00
20839;DHT22;10580;51.092;6.828;2022-08-11T06:06:00;34.60;1.00
20839;DHT22;10580;51.092;6.828;2022-08-11T06:08:33;35.10;1.00
20839;DHT22;10580;51.092;6.828;2022-08-11T06:11:04;35.40;1.00
20839;DHT22;10580;51.092;6.828;2022-08-11T06:13:30;35.60;1.00
20839;DHT22;10580;51.092;6.828;2022-08-11T06:15:57;35.70;1.00
20839;DHT22;10580;51.092;6.828;2022-08-11T06:18:23;35.90;1.00
20839;DHT22;10580;51.092;6.828;2022-08-11T06:20:54;36.20;1.00
20839;DHT22;10580;51.092;6.828;2022-08-11T06:23:22;36.30;1.00
20839;DHT22;10580;51.092;6.828;2022-08-11T06:25:51;36.50;1.00
20839;DHT22;10580;51.092;6.828;2022-08-11T06:28:18;36.60;1.00
20839;DHT22;10580;51.092;6.828;2022-08-11T06:30:45;36.80;1.00
20839;DHT22;10580;51.092;6.828;2022-08-11T06:33:34;36.90;1.00
20839;DHT22;10580;51.092;6.828;2022-08-11T06:36:32;36.80;1.00
20839;DHT22;10580;51.092;6.828;2022-08-11T06:41:51;37.10;1.00
20839;DHT22;10580;51.092;6.828;2022-08-11T06:44:29;37.40;1.00
20839;DHT22;10580;51.092;6.828;2022-08-11T06:47:07;37.50;1.00
20839;DHT22;10580;51.092;6.828;2022-08-11T06:49:37;37.60;1.00
20839;DHT22;10580;51.092;6.828;2022-08-11T06:52:31;37.60;1.00
20839;DHT22;10580;51.092;6.828;2022-08-11T06:55:04;37.70;1.00
20839;DHT22;10580;51.092;6.828;2022-08-11T06:57:36;37.80;1.00
20839;DHT22;10580;51.092;6.828;2022-08-11T07:00:21;37.80;1.00
20839;DHT22;10580;51.092;6.828;2022-08-11T07:03:07;38.00;1.00
20839;DHT22;10580;51.092;6.828;2022-08-11T07:14:22;38.40;1.00
20839;DHT22;10580;51.092;6.828;2022-08-11T07:17:12;38.40;1.00
20839;DHT22;10580;51.092;6.828;2022-08-11T07:19:42;38.20;1.00
20839;DHT22;10580;51.092;6.828;2022-08-11T07:22:31;38.20;1.00
20839;DHT22;10580;51.092;6.828;2022-08-11T07:25:16;38.50;1.00
20839;DHT22;10580;51.092;6.828;2022-08-11T07:28:27;38.70;1.00
20839;DHT22;10580;51.092;6.828;2022-08-11T07:31:45;38.70;1.00
20839;DHT22;10580;51.092;6.828;2022-08-11T07:34:33;38.60;1.00
20839;DHT22;10580;51.092;6.828;2022-08-11T07:37:03;38.80;1.00
20839;DHT22;10580;51.092;6.828;2022-08-11T07:39:33;38.70;1.00
20839;DHT22;10580;51.092;6.828;2022-08-11T07:42:11;38.80;1.00
20839;DHT22;10580;51.092;6.828;2022-08-11T07:44:40;39.00;1.00
20839;DHT22;10580;51.092;6.828;2022-08-11T07:47:25;39.00;1.00
20839;DHT22;10580;51.092;6.828;2022-08-11T07:50:10;39.10;1.00
20839;DHT22;10580;51.092;6.828;2022-08-11T07:52:57;39.00;1.00
20839;DHT22;10580;51.092;6.828;2022-08-11T07:55:23;39.00;1.00
20839;DHT22;10580;51.092;6.828;2022-08-11T07:57:59;39.20;1.00
20839;DHT22;10580;51.092;6.828;2022-08-11T08:00:55;39.40;1.00
20839;DHT22;10580;51.092;6.828;2022-08-11T08:03:41;39.40;1.00
20839;DHT22;10580;51.092;6.828;2022-08-11T08:06:26;39.00;1.00
20839;DHT22;10580;51.092;6.828;2022-08-11T08:09:11;39.00;1.00
20839;DHT22;10580;51.092;6.828;2022-08-11T08:11:59;39.10;1.00
20839;DHT22;10580;51.092;6.828;2022-08-11T08:14:43;38.70;1.00
20839;DHT22;10580;51.092;6.828;2022-08-11T08:17:29;38.60;1.00
20839;DHT22;10580;51.092;6.828;2022-08-11T08:20:16;38.50;1.00
20839;DHT22;10580;51.092;6.828;2022-08-11T08:22:55;38.40;1.00
20839;DHT22;10580;51.092;6.828;2022-08-11T08:25:30;38.30;1.00
20839;DHT22;10580;51.092;6.828;2022-08-11T08:27:57;38.20;1.00
20839;DHT22;10580;51.092;6.828;2022-08-11T08:30:25;38.20;1.00
20839;DHT22;10580;51.092;6.828;2022-08-11T08:33:16;38.10;1.00
20839;DHT22;10580;51.092;6.828;2022-08-11T08:35:43;38.00;1.00
20839;DHT22;10580;51.092;6.828;2022-08-11T08:38:10;37.50;1.00
20839;DHT22;10580;51.092;6.828;2022-08-11T08:40:38;37.20;1.00
20839;DHT22;10580;51.092;6.828;2022-08-11T08:43:07;37.60;1.00
20839;DHT22;10580;51.092;6.828;2022-08-11T08:45:37;37.20;1.00
20839;DHT22;10580;51.092;6.828;2022-08-11T08:48:10;37.10;1.00
20839;DHT22;10580;51.092;6.828;2022-08-11T08:50:42;36.80;1.00
20839;DHT22;10580;51.092;6.828;2022-08-11T08:53:31;36.10;1.00
20839;DHT22;10580;51.092;6.828;2022-08-11T08:55:59;36.70;1.00
20839;DHT22;10580;51.092;6.828;2022-08-11T08:58:26;36.60;1.00
20839;DHT22;10580;51.092;6.828;2022-08-11T09:00:53;37.10;1.00
20839;DHT22;10580;51.092;6.828;2022-08-11T09:03:20;37.40;1.00
20839;DHT22;10580;51.092;6.828;2022-08-11T09:05:47;37.30;1.00
20839;DHT22;10580;51.092;6.828;2022-08-11T09:08:16;36.60;1.00
20839;DHT22;10580;51.092;6.828;2022-08-11T09:10:45;36.70;1.00
20839;DHT22;10580;51.092;6.828;2022-08-11T09:13:32;36.00;1.00
20839;DHT22;10580;51.092;6.828;2022-08-11T09:15:58;36.40;1.00
20839;DHT22;10580;51.092;6.828;2022-08-11T09:18:24;36.80;1.00
20839;DHT22;10580;51.092;6.828;2022-08-11T09:20:50;37.00;1.00
20839;DHT22;10580;51.092;6.828;2022-08-11T09:23:16;37.30;1.00
20839;DHT22;10580;51.092;6.828;2022-08-11T09:26:00;37.70;1.00
20839;DHT22;10580;51.092;6.828;2022-08-11T09:28:46;38.10;1.00
20839;DHT22;10580;51.092;6.828;2022-08-11T09:31:13;38.00;1.00
20839;DHT22;10580;51.092;6.828;2022-08-11T09:33:39;37.90;1.00
20839;DHT22;10580;51.092;6.828;2022-08-11T09:36:07;38.20;1.00
20839;DHT22;10580;51.092;6.828;2022-08-11T09:38:52;38.20;1.00
20839;DHT22;10580;51.092;6.828;2022-08-11T09:41:38;38.00;1.00
20839;DHT22;10580;51.092;6.828;2022-08-11T09:44:08;37.70;1.00
20839;DHT22;10580;51.092;6.828;2022-08-11T09:47:09;38.20;1.00
20839;DHT22;10580;51.092;6.828;2022-08-11T09:49:42;38.00;1.00
20839;DHT22;10580;51.092;6.828;2022-08-11T09:52:09;38.10;1.00
20839;DHT22;10580;51.092;6.828;2022-08-11T09:54:35;37.50;1.00
20839;DHT22;10580;51.092;6.828;2022-08-11T09:57:01;37.10;1.00
20839;DHT22;10580;51.092;6.828;2022-08-11T09:59:47;36.30;1.00
20839;DHT22;10580;51.092;6.828;2022-08-11T10:02:13;35.90;1.00
20839;DHT22;10580;51.092;6.828;2022-08-11T10:04:41;35.60;1.00
20839;DHT22;10580;51.092;6.828;2022-08-11T10:07:13;36.00;1.00
20839;DHT22;10580;51.092;6.828;2022-08-11T10:09:45;36.60;1.00
20839;DHT22;10580;51.092;6.828;2022-08-11T10:12:23;36.60;1.00
20839;DHT22;10580;51.092;6.828;2022-08-11T10:14:56;37.00;1.00
20839;DHT22;10580;51.092;6.828;2022-08-11T10:17:43;36.80;1.00
20839;DHT22;10580;51.092;6.828;2022-08-11T10:20:36;36.10;1.00
20839;DHT22;10580;51.092;6.828;2022-08-11T10:23:03;35.00;1.00
20839;DHT22;10580;51.092;6.828;2022-08-11T10:25:48;34.20;1.00
20839;DHT22;10580;51.092;6.828;2022-08-11T10:28:34;33.40;1.00
20839;DHT22;10580;51.092;6.828;2022-08-11T10:31:01;33.00;1.00
20839;DHT22;10580;51.092;6.828;2022-08-11T10:33:48;33.20;1.00
20839;DHT22;10580;51.092;6.828;2022-08-11T10:36:32;33.30;1.00
20839;DHT22;10580;51.092;6.828;2022-08-11T10:39:00;33.30;1.00
20839;DHT22;10580;51.092;6.828;2022-08-11T10:41:27;33.20;1.00
20839;DHT22;10580;51.092;6.828;2022-08-11T10:44:12;33.40;1.00
20839;DHT22;10580;51.092;6.828;2022-08-11T10:46:56;33.80;1.00
20839;DHT22;10580;51.092;6.828;2022-08-11T10:49:40;34.70;1.00
20839;DHT22;10580;51.092;6.828;2022-08-11T10:52:06;35.60;1.00
20839;DHT22;10580;51.092;6.828;2022-08-11T10:54:50;35.50;1.00
20839;DHT22;10580;51.092;6.828;2022-08-11T10:57:36;35.70;1.00
20839;DHT22;10580;51.092;6.828;2022-08-11T11:00:20;36.30;1.00
20839;DHT22;10580;51.092;6.828;2022-08-11T11:02:46;36.40;1.00
20839;DHT22;10580;51.092;6.828;2022-08-11T11:05:18;36.90;1.00
20839;DHT22;10580;51.092;6.828;2022-08-11T11:08:11;36.80;1.00
20839;DHT22;10580;51.092;6.828;2022-08-11T11:10:57;37.50;1.00
20839;DHT22;10580;51.092;6.828;2022-08-11T11:13:37;37.80;1.00
20839;DHT22;10580;51.092;6.828;2022-08-11T11:16:25;37.60;1.00
20839;DHT22;10580;51.092;6.828;2022-08-11T11:19:26;37.30;1.00
20839;DHT22;10580;51.092;6.828;2022-08-11T11:21:56;37.00;1.00
20839;DHT22;10580;51.092;6.828;2022-08-11T11:25:16;36.80;1.00
20839;DHT22;10580;51.092;6.828;2022-08-11T11:27:56;36.30;1.00
20839;DHT22;10580;51.092;6.828;2022-08-11T11:30:34;35.70;1.00
20839;DHT22;10580;51.092;6.828;2022-08-11T11:36:11;36.50;1.00
20839;DHT22;10580;51.092;6.828;2022-08-11T11:38:49;37.00;1.00
20839;DHT22;10580;51.092;6.828;2022-08-11T11:41:26;37.60;1.00
20839;DHT22;10580;51.092;6.828;2022-08-11T11:44:05;37.60;1.00
20839;DHT22;10580;51.092;6.828;2022-08-11T11:46:45;37.40;1.00
20839;DHT22;10580;51.092;6.828;2022-08-11T11:49:32;37.70;1.00
20839;DHT22;10580;51.092;6.828;2022-08-11T11:52:15;37.80;1.00
20839;DHT22;10580;51.092;6.828;2022-08-11T11:54:53;37.00;1.00
20839;DHT22;10580;51.092;6.828;2022-08-11T11:57:31;37.10;1.00
20839;DHT22;10580;51.092;6.828;2022-08-11T12:00:19;36.90;1.00
20839;DHT22;10580;51.092;6.828;2022-08-11T12:06:37;37.40;1.00
20839;DHT22;10580;51.092;6.828;2022-08-11T12:09:04;37.80;1.00
20839;DHT22;10580;51.092;6.828;2022-08-11T12:11:31;38.10;1.00
20839;DHT22;10580;51.092;6.828;2022-08-11T12:14:19;38.50;1.00
20839;DHT22;10580;51.092;6.828;2022-08-11T12:16:46;38.00;1.00
20839;DHT22;10580;51.092;6.828;2022-08-11T12:19:16;37.60;1.00
20839;DHT22;10580;51.092;6.828;2022-08-11T12:21:43;37.50;1.00
20839;DHT22;10580;51.092;6.828;2022-08-11T12:24:29;36.80;1.00
20839;DHT22;10580;51.092;6.828;2022-08-11T12:27:14;36.50;1.00
20839;DHT22;10580;51.092;6.828;2022-08-11T12:29:53;36.90;1.00
20839;DHT22;10580;51.092;6.828;2022-08-11T12:32:24;37.30;1.00
20839;DHT22;10580;51.092;6.828;2022-08-11T12:34:50;37.80;1.00
20839;DHT22;10580;51.092;6.828;2022-08-11T12:37:22;37.90;1.00
20839;DHT22;10580;51.092;6.828;2022-08-11T12:39:51;37.60;1.00
20839;DHT22;10580;51.092;6.828;2022-08-11T12:42:36;37.10;1.00
20839;DHT22;10580;51.092;6.828;2022-08-11T12:45:25;36.80;1.00
20839;DHT22;10580;51.092;6.828;2022-08-11T12:48:12;37.10;1.00
20839;DHT22;10580;51.092;6.828;2022-08-11T12:51:09;37.50;1.00
20839;DHT22;10580;51.092;6.828;2022-08-11T12:54:08;37.60;1.00
20839;DHT22;10580;51.092;6.828;2022-08-11T12:56:41;37.50;1.00
20839;DHT22;10580;51.092;6.828;2022-08-11T13:00:08;37.30;1.00
20839;DHT22;10580;51.092;6.828;2022-08-11T13:03:24;37.50;1.00
20839;DHT22;10580;51.092;6.828;2022-08-11T13:06:22;37.40;1.00
20839;DHT22;10580;51.092;6.828;2022-08-11T13:08:52;37.30;1.00
20839;DHT22;10580;51.092;6.828;2022-08-11T13:11:22;37.20;1.00
20839;DHT22;10580;51.092;6.828;2022-08-11T13:14:22;37.00;1.00
20839;DHT22;10580;51.092;6.828;2022-08-11T13:16:48;36.90;1.00
20839;DHT22;10580;51.092;6.828;2022-08-11T13:19:34;37.00;1.00
20839;DHT22;10580;51.092;6.828;2022-08-11T13:22:00;37.10;1.00
20839;DHT22;10580;51.092;6.828;2022-08-11T13:24:27;37.00;1.00
20839;DHT22;10580;51.092;6.828;2022-08-11T13:26:53;37.20;1.00
20839;DHT22;10580;51.092;6.828;2022-08-11T13:29:24;37.20;1.00
20839;DHT22;10580;51.092;6.828;2022-08-11T13:31:53;37.00;1.00
20839;DHT22;10580;51.092;6.828;2022-08-11T13:34:22;37.00;1.00
20839;DHT22;10580;51.092;6.828;2022-08-11T13:36:50;36.60;1.00
20839;DHT22;10580;51.092;6.828;2022-08-11T13:39:17;36.30;1.00
20839;DHT22;10580;51.092;6.828;2022-08-11T13:41:43;35.70;1.00
20839;DHT22;10580;51.092;6.828;2022-08-11T13:44:13;35.50;1.00
20839;DHT22;10580;51.092;6.828;2022-08-11T13:46:40;35.20;1.00
20839;DHT22;10580;51.092;6.828;2022-08-11T13:49:07;34.90;1.00
20839;DHT22;10580;51.092;6.828;2022-08-11T13:51:35;34.80;1.00
20839;DHT22;10580;51.092;6.828;2022-08-11T13:54:15;35.00;1.00
20839;DHT22;10580;51.092;6.828;2022-08-11T13:56:50;35.10;1.00
20839;DHT22;10580;51.092;6.828;2022-08-11T13:59:20;35.30;1.00
20839;DHT22;10580;51.092;6.828;2022-08-11T14:01:51;35.10;1.00
20839;DHT22;10580;51.092;6.828;2022-08-11T14:04:35;35.20;1.00
20839;DHT22;10580;51.092;6.828;2022-08-11T14:07:06;35.20;1.00
20839;DHT22;10580;51.092;6.828;2022-08-11T14:09:39;35.20;1.00
20839;DHT22;10580;51.092;6.828;2022-08-11T14:12:13;35.10;1.00
20839;DHT22;10580;51.092;6.828;2022-08-11T14:15:09;35.20;1.00
20839;DHT22;10580;51.092;6.828;2022-08-11T14:17:38;35.30;1.00
20839;DHT22;10580;51.092;6.828;2022-08-11T14:20:07;35.00;1.00
20839;DHT22;10580;51.092;6.828;2022-08-11T14:22:35;34.90;1.00
20839;DHT22;10580;51.092;6.828;2022-08-11T14:25:03;34.80;1.00
20839;DHT22;10580;51.092;6.828;2022-08-11T14:27:29;34.70;1.00
20839;DHT22;10580;51.092;6.828;2022-08-11T14:29:56;34.60;1.00
20839;DHT22;10580;51.092;6.828;2022-08-11T14:32:24;34.50;1.00
20839;DHT22;10580;51.092;6.828;2022-08-11T14:34:51;34.30;1.00
20839;DHT22;10580;51.092;6.828;2022-08-11T14:37:24;34.30;1.00
20839;DHT22;10580;51.092;6.828;2022-08-11T14:39:58;34.30;1.00
20839;DHT22;10580;51.092;6.828;2022-08-11T14:42:25;34.40;1.00
20839;DHT22;10580;51.092;6.828;2022-08-11T14:45:13;34.10;1.00
20839;DHT22;10580;51.092;6.828;2022-08-11T14:48:00;34.00;1.00
20839;DHT22;10580;51.092;6.828;2022-08-11T14:50:29;33.60;1.00
20839;DHT22;10580;51.092;6.828;2022-08-11T14:52:58;33.60;1.00
20839;DHT22;10580;51.092;6.828;2022-08-11T14:55:26;33.80;1.00
20839;DHT22;10580;51.092;6.828;2022-08-11T14:58:15;34.00;1.00
20839;DHT22;10580;51.092;6.828;2022-08-11T15:00:42;33.60;1.00
20839;DHT22;10580;51.092;6.828;2022-08-11T15:03:11;33.50;1.00
20839;DHT22;10580;51.092;6.828;2022-08-11T15:05:59;33.40;1.00
20839;DHT22;10580;51.092;6.828;2022-08-11T15:08:28;33.50;1.00
20839;DHT22;10580;51.092;6.828;2022-08-11T15:11:15;33.50;1.00
20839;DHT22;10580;51.092;6.828;2022-08-11T15:14:02;33.50;1.00
20839;DHT22;10580;51.092;6.828;2022-08-11T15:26:59;32.80;1.00
20839;DHT22;10580;51.092;6.828;2022-08-11T15:29:44;32.80;1.00
20839;DHT22;10580;51.092;6.828;2022-08-11T15:36:07;32.80;1.00
20839;DHT22;10580;51.092;6.828;2022-08-11T15:42:22;32.90;1.00
20839;DHT22;10580;51.092;6.828;2022-08-11T15:45:11;32.90;1.00
20839;DHT22;10580;51.092;6.828;2022-08-11T15:51:54;32.70;1.00
20839;DHT22;10580;51.092;6.828;2022-08-11T16:01:26;32.70;1.00
20839;DHT22;10580;51.092;6.828;2022-08-11T16:04:17;32.60;1.00
20839;DHT22;10580;51.092;6.828;2022-08-11T16:06:57;32.20;1.00
20839;DHT22;10580;51.092;6.828;2022-08-11T16:09:34;32.20;1.00
20839;DHT22;10580;51.092;6.828;2022-08-11T16:12:10;32.20;1.00
20839;DHT22;10580;51.092;6.828;2022-08-11T16:14:39;32.00;1.00
20839;DHT22;10580;51.092;6.828;2022-08-11T16:17:26;31.90;1.00
20839;DHT22;10580;51.092;6.828;2022-08-11T16:19:56;31.90;1.00
20839;DHT22;10580;51.092;6.828;2022-08-11T16:22:27;31.80;1.00
20839;DHT22;10580;51.092;6.828;2022-08-11T16:25:07;31.80;1.00
20839;DHT22;10580;51.092;6.828;2022-08-11T16:27:37;31.80;1.00
20839;DHT22;10580;51.092;6.828;2022-08-11T16:30:05;31.70;1.00
20839;DHT22;10580;51.092;6.828;2022-08-11T16:32:33;31.70;1.00
20839;DHT22;10580;51.092;6.828;2022-08-11T16:35:04;31.50;1.00
20839;DHT22;10580;51.092;6.828;2022-08-11T16:37:51;31.50;1.00
20839;DHT22;10580;51.092;6.828;2022-08-11T16:40:37;31.40;1.00
20839;DHT22;10580;51.092;6.828;2022-08-11T16:43:06;31.50;1.00
20839;DHT22;10580;51.092;6.828;2022-08-11T16:45:53;31.50;1.00
20839;DHT22;10580;51.092;6.828;2022-08-11T16:48:40;31.40;1.00
20839;DHT22;10580;51.092;6.828;2022-08-11T16:51:09;31.40;1.00
20839;DHT22;10580;51.092;6.828;2022-08-11T16:53:35;31.20;1.00
20839;DHT22;10580;51.092;6.828;2022-08-11T16:56:03;31.20;1.00
20839;DHT22;10580;51.092;6.828;2022-08-11T16:58:30;31.20;1.00
20839;DHT22;10580;51.092;6.828;2022-08-11T17:01:20;31.10;1.00
20839;DHT22;10580;51.092;6.828;2022-08-11T17:03:51;31.10;1.00
20839;DHT22;10580;51.092;6.828;2022-08-11T17:06:40;31.10;1.00
20839;DHT22;10580;51.092;6.828;2022-08-11T17:09:25;31.00;1.00
20839;DHT22;10580;51.092;6.828;2022-08-11T17:12:13;31.00;1.00
20839;DHT22;10580;51.092;6.828;2022-08-11T17:15:01;30.90;1.00
20839;DHT22;10580;51.092;6.828;2022-08-11T17:17:36;30.80;1.00
20839;DHT22;10580;51.092;6.828;2022-08-11T17:20:05;30.80;1.00
20839;DHT22;10580;51.092;6.828;2022-08-11T17:22:35;30.60;1.00
20839;DHT22;10580;51.092;6.828;2022-08-11T17:25:22;30.50;1.00
20839;DHT22;10580;51.092;6.828;2022-08-11T17:27:49;30.50;1.00
20839;DHT22;10580;51.092;6.828;2022-08-11T17:30:16;30.40;1.00
20839;DHT22;10580;51.092;6.828;2022-08-11T17:32:48;30.30;1.00
20839;DHT22;10580;51.092;6.828;2022-08-11T17:39:37;30.10;1.00
20839;DHT22;10580;51.092;6.828;2022-08-11T17:42:03;30.00;1.00
20839;DHT22;10580;51.092;6.828;2022-08-11T17:44:49;29.90;1.00
20839;DHT22;10580;51.092;6.828;2022-08-11T17:47:34;29.80;1.00
20839;DHT22;10580;51.092;6.828;2022-08-11T17:50:20;29.70;1.00
20839;DHT22;10580;51.092;6.828;2022-08-11T17:52:46;29.70;1.00
20839;DHT22;10580;51.092;6.828;2022-08-11T17:55:33;29.60;1.00
20839;DHT22;10580;51.092;6.828;2022-08-11T17:58:18;29.50;1.00
20839;DHT22;10580;51.092;6.828;2022-08-11T18:01:04;29.50;1.00
20839;DHT22;10580;51.092;6.828;2022-08-11T18:03:32;29.40;1.00
20839;DHT22;10580;51.092;6.828;2022-08-11T18:06:05;29.30;1.00
20839;DHT22;10580;51.092;6.828;2022-08-11T18:08:32;29.20;1.00
20839;DHT22;10580;51.092;6.828;2022-08-11T18:11:17;29.10;1.00
20839;DHT22;10580;51.092;6.828;2022-08-11T18:14:04;29.10;1.00
20839;DHT22;10580;51.092;6.828;2022-08-11T18:16:49;28.90;1.00
20839;DHT22;10580;51.092;6.828;2022-08-11T18:19:33;28.90;1.00
20839;DHT22;10580;51.092;6.828;2022-08-11T18:22:21;28.90;1.00
20839;DHT22;10580;51.092;6.828;2022-08-11T18:25:14;28.70;1.00
20839;DHT22;10580;51.092;6.828;2022-08-11T18:28:00;28.60;1.00
20839;DHT22;10580;51.092;6.828;2022-08-11T18:30:46;28.60;1.00
20839;DHT22;10580;51.092;6.828;2022-08-11T18:33:47;28.50;1.00
20839;DHT22;10580;51.092;6.828;2022-08-11T18:36:38;28.40;1.00
20839;DHT22;10580;51.092;6.828;2022-08-11T18:39:31;28.30;1.00
20839;DHT22;10580;51.092;6.828;2022-08-11T18:42:18;28.30;1.00
20839;DHT22;10580;51.092;6.828;2022-08-11T18:45:10;28.20;1.00
20839;DHT22;10580;51.092;6.828;2022-08-11T18:48:02;28.10;1.00
20839;DHT22;10580;51.092;6.828;2022-08-11T18:50:48;28.00;1.00
20839;DHT22;10580;51.092;6.828;2022-08-11T18:53:36;27.90;1.00
20839;DHT22;10580;51.092;6.828;2022-08-11T18:56:24;27.80;1.00
20839;DHT22;10580;51.092;6.828;2022-08-11T18:59:09;27.80;1.00
20839;DHT22;10580;51.092;6.828;2022-08-11T19:01:55;27.70;1.00
20839;DHT22;10580;51.092;6.828;2022-08-11T19:04:44;27.60;1.00
20839;DHT22;10580;51.092;6.828;2022-08-11T19:07:29;27.40;1.00
20839;DHT22;10580;51.092;6.828;2022-08-11T19:10:15;27.40;1.00
20839;DHT22;10580;51.092;6.828;2022-08-11T19:13:00;27.30;1.00
20839;DHT22;10580;51.092;6.828;2022-08-11T19:15:45;27.20;1.00
20839;DHT22;10580;51.092;6.828;2022-08-11T19:18:31;27.10;1.00
20839;DHT22;10580;51.092;6.828;2022-08-11T19:21:17;27.10;1.00
20839;DHT22;10580;51.092;6.828;2022-08-11T19:24:03;27.00;1.00
20839;DHT22;10580;51.092;6.828;2022-08-11T19:26:49;26.90;1.00
20839;DHT22;10580;51.092;6.828;2022-08-11T19:29:36;26.90;1.00
20839;DHT22;10580;51.092;6.828;2022-08-11T19:32:21;26.80;1.00
20839;DHT22;10580;51.092;6.828;2022-08-11T19:35:07;26.70;1.00
20839;DHT22;10580;51.092;6.828;2022-08-11T19:37:52;26.60;1.00
20839;DHT22;10580;51.092;6.828;2022-08-11T19:40:38;26.60;1.00
20839;DHT22;10580;51.092;6.828;2022-08-11T19:43:23;26.60;1.00
20839;DHT22;10580;51.092;6.828;2022-08-11T19:46:09;26.50;1.00
20839;DHT22;10580;51.092;6.828;2022-08-11T19:48:55;26.50;1.00
20839;DHT22;10580;51.092;6.828;2022-08-11T19:51:42;26.40;1.00
20839;DHT22;10580;51.092;6.828;2022-08-11T19:54:31;26.30;1.00
20839;DHT22;10580;51.092;6.828;2022-08-11T19:57:16;26.30;1.00
20839;DHT22;10580;51.092;6.828;2022-08-11T20:00:05;26.30;1.00
20839;DHT22;10580;51.092;6.828;2022-08-11T20:02:50;26.20;1.00
20839;DHT22;10580;51.092;6.828;2022-08-11T20:05:34;26.20;1.00
20839;DHT22;10580;51.092;6.828;2022-08-11T20:08:20;26.10;1.00
20839;DHT22;10580;51.092;6.828;2022-08-11T20:11:06;26.10;1.00
20839;DHT22;10580;51.092;6.828;2022-08-11T20:13:51;26.00;1.00
20839;DHT22;10580;51.092;6.828;2022-08-11T20:16:36;26.00;1.00
20839;DHT22;10580;51.092;6.828;2022-08-11T20:19:22;25.90;1.00
20839;DHT22;10580;51.092;6.828;2022-08-11T20:22:08;25.90;1.00
20839;DHT22;10580;51.092;6.828;2022-08-11T20:25:09;25.80;1.00
20839;DHT22;10580;51.092;6.828;2022-08-11T20:27:54;25.70;1.00
20839;DHT22;10580;51.092;6.828;2022-08-11T20:30:41;25.70;1.00
20839;DHT22;10580;51.092;6.828;2022-08-11T20:33:30;25.70;1.00
20839;DHT22;10580;51.092;6.828;2022-08-11T20:36:15;25.60;1.00
20839;DHT22;10580;51.092;6.828;2022-08-11T20:39:01;25.50;1.00
20839;DHT22;10580;51.092;6.828;2022-08-11T20:41:46;25.40;1.00
20839;DHT22;10580;51.092;6.828;2022-08-11T20:44:32;25.30;1.00
20839;DHT22;10580;51.092;6.828;2022-08-11T20:47:22;25.30;1.00
20839;DHT22;10580;51.092;6.828;2022-08-11T20:50:08;25.30;1.00
20839;DHT22;10580;51.092;6.828;2022-08-11T20:52:53;25.20;1.00
20839;DHT22;10580;51.092;6.828;2022-08-11T20:55:38;25.10;1.00
20839;DHT22;10580;51.092;6.828;2022-08-11T20:58:23;25.00;1.00
20839;DHT22;10580;51.092;6.828;2022-08-11T21:01:08;25.00;1.00
20839;DHT22;10580;51.092;6.828;2022-08-11T21:03:59;25.00;1.00
20839;DHT22;10580;51.092;6.828;2022-08-11T21:12:35;24.90;1.00
20839;DHT22;10580;51.092;6.828;2022-08-11T21:18:43;24.80;1.00
20839;DHT22;10580;51.092;6.828;2022-08-11T21:21:29;24.70;1.00
20839;DHT22;10580;51.092;6.828;2022-08-11T21:32:00;24.50;1.00
20839;DHT22;10580;51.092;6.828;2022-08-11T21:34:44;24.40;1.00
20839;DHT22;10580;51.092;6.828;2022-08-11T21:37:30;24.30;1.00
20839;DHT22;10580;51.092;6.828;2022-08-11T21:40:15;24.30;1.00